Terminal Aerodrome Forecast
Issued by NWS Sterling, VA

Current Version | Previous Version | Graphics & Text | Print | Product List | Glossary On
Versions: 1 2 3 4 5 6 7 8 9 10 11 12 13 14 15
595
FTUS41 KLWX 271923 AAA
TAFMRB
TAF AMD
KMRB 271923Z 2719/2818 24005KT P6SM VCTS BKN050CB
      TEMPO 2719/2721 5SM -TSRA
     FM272200 19005KT P6SM SCT050
     FM280500 VRB03KT P6SM SKC
     FM280600 VRB03KT 3SM BR SKC
     FM281000 00000KT 1 1/2SM BR SKC
     FM281400 00000KT P6SM SKC=

USA.gov is the U.S. government's official web portal to all federal, state and local government web resources and services.